sensor_id;sensor_type;location;lat;lon;timestamp;temperature;humidity
75786;DHT22;64402;44.708;37.644;2023-07-22T00:02:23;21.47;77.37
75786;DHT22;64402;44.708;37.644;2023-07-22T00:04:49;21.47;77.21
75786;DHT22;64402;44.708;37.644;2023-07-22T00:07:16;21.45;77.16
75786;DHT22;64402;44.708;37.644;2023-07-22T00:09:42;21.44;77.24
75786;DHT22;64402;44.708;37.644;2023-07-22T00:12:09;21.38;77.47
75786;DHT22;64402;44.708;37.644;2023-07-22T00:14:40;21.36;77.72
75786;DHT22;64402;44.708;37.644;2023-07-22T00:17:07;21.30;77.62
75786;DHT22;64402;44.708;37.644;2023-07-22T00:19:34;21.24;77.75
75786;DHT22;64402;44.708;37.644;2023-07-22T00:22:00;21.21;77.56
75786;DHT22;64402;44.708;37.644;2023-07-22T00:24:26;21.21;77.71
75786;DHT22;64402;44.708;37.644;2023-07-22T00:26:52;21.22;77.38
75786;DHT22;64402;44.708;37.644;2023-07-22T00:29:18;21.21;77.73
75786;DHT22;64402;44.708;37.644;2023-07-22T00:31:45;21.17;78.16
75786;DHT22;64402;44.708;37.644;2023-07-22T00:34:11;21.13;78.34
75786;DHT22;64402;44.708;37.644;2023-07-22T00:36:37;21.13;78.07
75786;DHT22;64402;44.708;37.644;2023-07-22T00:39:03;21.11;77.98
75786;DHT22;64402;44.708;37.644;2023-07-22T00:41:31;21.10;77.89
75786;DHT22;64402;44.708;37.644;2023-07-22T00:43:57;21.10;78.22
75786;DHT22;64402;44.708;37.644;2023-07-22T00:46:23;21.09;77.98
75786;DHT22;64402;44.708;37.644;2023-07-22T00:48:50;21.11;78.02
75786;DHT22;64402;44.708;37.644;2023-07-22T00:51:17;21.09;78.42
75786;DHT22;64402;44.708;37.644;2023-07-22T00:53:44;21.07;79.32
75786;DHT22;64402;44.708;37.644;2023-07-22T00:56:11;21.05;78.79
75786;DHT22;64402;44.708;37.644;2023-07-22T00:58:37;21.04;79.17
75786;DHT22;64402;44.708;37.644;2023-07-22T01:01:03;21.01;78.69
75786;DHT22;64402;44.708;37.644;2023-07-22T01:03:29;21.00;78.65
75786;DHT22;64402;44.708;37.644;2023-07-22T01:05:56;20.96;78.92
75786;DHT22;64402;44.708;37.644;2023-07-22T01:08:24;20.90;79.38
75786;DHT22;64402;44.708;37.644;2023-07-22T01:10:50;20.87;79.46
75786;DHT22;64402;44.708;37.644;2023-07-22T01:13:16;20.86;79.28
75786;DHT22;64402;44.708;37.644;2023-07-22T01:15:42;20.86;79.21
75786;DHT22;64402;44.708;37.644;2023-07-22T01:18:09;20.83;79.40
75786;DHT22;64402;44.708;37.644;2023-07-22T01:20:35;20.85;79.43
75786;DHT22;64402;44.708;37.644;2023-07-22T01:23:02;20.86;79.77
75786;DHT22;64402;44.708;37.644;2023-07-22T01:25:28;20.86;79.76
75786;DHT22;64402;44.708;37.644;2023-07-22T01:27:55;20.86;79.85
75786;DHT22;64402;44.708;37.644;2023-07-22T01:30:21;20.86;79.57
75786;DHT22;64402;44.708;37.644;2023-07-22T01:32:47;20.85;80.22
75786;DHT22;64402;44.708;37.644;2023-07-22T01:35:13;20.81;80.24
75786;DHT22;64402;44.708;37.644;2023-07-22T01:37:40;20.79;80.71
75786;DHT22;64402;44.708;37.644;2023-07-22T01:40:07;20.77;80.85
75786;DHT22;64402;44.708;37.644;2023-07-22T01:42:42;20.75;81.15
75786;DHT22;64402;44.708;37.644;2023-07-22T01:45:10;20.75;80.64
75786;DHT22;64402;44.708;37.644;2023-07-22T01:47:38;20.75;80.29
75786;DHT22;64402;44.708;37.644;2023-07-22T01:50:05;20.74;80.61
75786;DHT22;64402;44.708;37.644;2023-07-22T01:52:36;20.70;81.14
75786;DHT22;64402;44.708;37.644;2023-07-22T01:55:03;20.68;80.96
75786;DHT22;64402;44.708;37.644;2023-07-22T01:57:32;20.66;80.75
75786;DHT22;64402;44.708;37.644;2023-07-22T01:59:58;20.66;80.78
75786;DHT22;64402;44.708;37.644;2023-07-22T02:02:24;20.68;81.15
75786;DHT22;64402;44.708;37.644;2023-07-22T02:04:51;20.70;80.56
75786;DHT22;64402;44.708;37.644;2023-07-22T02:07:17;20.70;80.69
75786;DHT22;64402;44.708;37.644;2023-07-22T02:09:43;20.73;80.85
75786;DHT22;64402;44.708;37.644;2023-07-22T02:12:09;20.76;80.74
75786;DHT22;64402;44.708;37.644;2023-07-22T02:14:37;20.81;80.81
75786;DHT22;64402;44.708;37.644;2023-07-22T02:17:03;20.85;80.31
75786;DHT22;64402;44.708;37.644;2023-07-22T02:19:29;20.83;80.24
75786;DHT22;64402;44.708;37.644;2023-07-22T02:21:55;20.84;80.56
75786;DHT22;64402;44.708;37.644;2023-07-22T02:24:22;20.84;80.52
75786;DHT22;64402;44.708;37.644;2023-07-22T02:26:48;20.83;80.82
75786;DHT22;64402;44.708;37.644;2023-07-22T02:29:14;20.84;80.52
75786;DHT22;64402;44.708;37.644;2023-07-22T02:31:40;20.85;80.44
75786;DHT22;64402;44.708;37.644;2023-07-22T02:34:06;20.88;80.11
75786;DHT22;64402;44.708;37.644;2023-07-22T02:36:32;20.89;80.23
75786;DHT22;64402;44.708;37.644;2023-07-22T02:38:59;20.90;80.24
75786;DHT22;64402;44.708;37.644;2023-07-22T02:41:25;20.87;80.21
75786;DHT22;64402;44.708;37.644;2023-07-22T02:43:51;20.90;80.00
75786;DHT22;64402;44.708;37.644;2023-07-22T02:46:18;20.92;79.97
75786;DHT22;64402;44.708;37.644;2023-07-22T02:48:44;20.95;79.80
75786;DHT22;64402;44.708;37.644;2023-07-22T02:51:10;20.96;80.07
75786;DHT22;64402;44.708;37.644;2023-07-22T02:53:36;20.99;80.07
75786;DHT22;64402;44.708;37.644;2023-07-22T02:56:03;20.99;80.20
75786;DHT22;64402;44.708;37.644;2023-07-22T02:58:29;21.01;79.90
75786;DHT22;64402;44.708;37.644;2023-07-22T03:00:55;21.06;79.44
75786;DHT22;64402;44.708;37.644;2023-07-22T03:03:25;21.11;79.71
75786;DHT22;64402;44.708;37.644;2023-07-22T03:05:52;21.11;79.91
75786;DHT22;64402;44.708;37.644;2023-07-22T03:08:18;21.18;79.13
75786;DHT22;64402;44.708;37.644;2023-07-22T03:10:45;21.28;79.42
75786;DHT22;64402;44.708;37.644;2023-07-22T03:13:17;21.34;79.27
75786;DHT22;64402;44.708;37.644;2023-07-22T03:15:44;21.36;79.25
75786;DHT22;64402;44.708;37.644;2023-07-22T03:18:10;21.45;79.21
75786;DHT22;64402;44.708;37.644;2023-07-22T03:20:38;21.50;79.21
75786;DHT22;64402;44.708;37.644;2023-07-22T03:23:05;21.58;79.11
75786;DHT22;64402;44.708;37.644;2023-07-22T03:25:31;21.66;78.77
75786;DHT22;64402;44.708;37.644;2023-07-22T03:28:04;21.79;78.55
75786;DHT22;64402;44.708;37.644;2023-07-22T03:30:30;21.87;78.43
75786;DHT22;64402;44.708;37.644;2023-07-22T03:32:56;21.97;78.79
75786;DHT22;64402;44.708;37.644;2023-07-22T03:35:23;22.05;78.24
75786;DHT22;64402;44.708;37.644;2023-07-22T03:37:49;22.14;77.88
75786;DHT22;64402;44.708;37.644;2023-07-22T03:40:15;22.27;77.70
75786;DHT22;64402;44.708;37.644;2023-07-22T03:42:57;22.38;77.85
75786;DHT22;64402;44.708;37.644;2023-07-22T03:45:23;22.46;78.02
75786;DHT22;64402;44.708;37.644;2023-07-22T03:47:57;22.50;78.07
75786;DHT22;64402;44.708;37.644;2023-07-22T03:50:24;22.54;77.66
75786;DHT22;64402;44.708;37.644;2023-07-22T03:52:50;22.64;77.04
75786;DHT22;64402;44.708;37.644;2023-07-22T03:55:16;22.75;76.43
75786;DHT22;64402;44.708;37.644;2023-07-22T03:57:44;22.85;76.98
75786;DHT22;64402;44.708;37.644;2023-07-22T04:00:10;22.94;76.77
75786;DHT22;64402;44.708;37.644;2023-07-22T04:02:37;23.00;76.95
75786;DHT22;64402;44.708;37.644;2023-07-22T04:05:03;23.08;76.82
75786;DHT22;64402;44.708;37.644;2023-07-22T04:07:29;23.18;76.24
75786;DHT22;64402;44.708;37.644;2023-07-22T04:09:55;23.31;75.61
75786;DHT22;64402;44.708;37.644;2023-07-22T04:12:21;23.41;74.76
75786;DHT22;64402;44.708;37.644;2023-07-22T04:14:47;23.55;74.69
75786;DHT22;64402;44.708;37.644;2023-07-22T04:17:14;23.66;74.57
75786;DHT22;64402;44.708;37.644;2023-07-22T04:19:41;23.76;74.22
75786;DHT22;64402;44.708;37.644;2023-07-22T04:22:10;23.86;74.38
75786;DHT22;64402;44.708;37.644;2023-07-22T04:24:37;23.96;73.99
75786;DHT22;64402;44.708;37.644;2023-07-22T04:27:04;24.01;73.48
75786;DHT22;64402;44.708;37.644;2023-07-22T04:29:30;24.11;73.44
75786;DHT22;64402;44.708;37.644;2023-07-22T04:32:00;24.21;72.15
75786;DHT22;64402;44.708;37.644;2023-07-22T04:34:30;24.34;72.64
75786;DHT22;64402;44.708;37.644;2023-07-22T04:36:57;24.45;71.81
75786;DHT22;64402;44.708;37.644;2023-07-22T04:39:26;24.55;71.85
75786;DHT22;64402;44.708;37.644;2023-07-22T04:41:52;24.64;71.85
75786;DHT22;64402;44.708;37.644;2023-07-22T04:44:19;24.71;71.16
75786;DHT22;64402;44.708;37.644;2023-07-22T04:46:45;24.80;70.72
75786;DHT22;64402;44.708;37.644;2023-07-22T04:49:11;24.89;70.10
75786;DHT22;64402;44.708;37.644;2023-07-22T04:51:38;25.04;70.16
75786;DHT22;64402;44.708;37.644;2023-07-22T04:54:04;25.17;69.56
75786;DHT22;64402;44.708;37.644;2023-07-22T04:56:30;25.29;68.74
75786;DHT22;64402;44.708;37.644;2023-07-22T04:58:56;25.40;68.42
75786;DHT22;64402;44.708;37.644;2023-07-22T05:01:23;25.53;68.42
75786;DHT22;64402;44.708;37.644;2023-07-22T05:03:49;25.64;68.65
75786;DHT22;64402;44.708;37.644;2023-07-22T05:06:15;25.74;67.44
75786;DHT22;64402;44.708;37.644;2023-07-22T05:08:41;25.84;67.92
75786;DHT22;64402;44.708;37.644;2023-07-22T05:11:08;25.97;67.01
75786;DHT22;64402;44.708;37.644;2023-07-22T05:13:34;26.09;65.07
75786;DHT22;64402;44.708;37.644;2023-07-22T05:16:00;26.23;64.97
75786;DHT22;64402;44.708;37.644;2023-07-22T05:18:27;26.35;65.78
75786;DHT22;64402;44.708;37.644;2023-07-22T05:20:53;26.45;64.29
75786;DHT22;64402;44.708;37.644;2023-07-22T05:23:20;26.49;64.69
75786;DHT22;64402;44.708;37.644;2023-07-22T05:25:53;26.57;63.59
75786;DHT22;64402;44.708;37.644;2023-07-22T05:28:19;26.66;62.97
75786;DHT22;64402;44.708;37.644;2023-07-22T05:30:45;26.76;62.67
75786;DHT22;64402;44.708;37.644;2023-07-22T05:33:11;26.91;61.78
75786;DHT22;64402;44.708;37.644;2023-07-22T05:35:38;27.00;61.74
75786;DHT22;64402;44.708;37.644;2023-07-22T05:38:04;27.13;61.80
75786;DHT22;64402;44.708;37.644;2023-07-22T05:40:30;27.20;62.41
75786;DHT22;64402;44.708;37.644;2023-07-22T05:42:56;27.32;61.96
75786;DHT22;64402;44.708;37.644;2023-07-22T05:45:22;27.43;61.09
75786;DHT22;64402;44.708;37.644;2023-07-22T05:47:49;27.51;60.18
75786;DHT22;64402;44.708;37.644;2023-07-22T05:50:15;27.57;58.13
75786;DHT22;64402;44.708;37.644;2023-07-22T05:52:41;27.58;59.26
75786;DHT22;64402;44.708;37.644;2023-07-22T05:55:07;27.63;60.18
75786;DHT22;64402;44.708;37.644;2023-07-22T05:57:34;27.69;59.88
75786;DHT22;64402;44.708;37.644;2023-07-22T06:00:00;27.81;59.05
75786;DHT22;64402;44.708;37.644;2023-07-22T06:02:27;27.85;59.60
75786;DHT22;64402;44.708;37.644;2023-07-22T06:04:53;27.93;58.85
75786;DHT22;64402;44.708;37.644;2023-07-22T06:07:19;28.09;57.74
75786;DHT22;64402;44.708;37.644;2023-07-22T06:09:45;28.13;57.67
75786;DHT22;64402;44.708;37.644;2023-07-22T06:12:12;28.16;57.39
75786;DHT22;64402;44.708;37.644;2023-07-22T06:14:38;28.33;56.63
75786;DHT22;64402;44.708;37.644;2023-07-22T06:17:04;28.42;55.63
75786;DHT22;64402;44.708;37.644;2023-07-22T06:19:31;28.47;55.89
75786;DHT22;64402;44.708;37.644;2023-07-22T06:21:57;28.56;55.80
75786;DHT22;64402;44.708;37.644;2023-07-22T06:24:23;28.62;55.16
75786;DHT22;64402;44.708;37.644;2023-07-22T06:26:49;28.67;55.11
75786;DHT22;64402;44.708;37.644;2023-07-22T06:29:15;28.78;55.84
75786;DHT22;64402;44.708;37.644;2023-07-22T06:31:41;28.87;56.03
75786;DHT22;64402;44.708;37.644;2023-07-22T06:34:07;29.00;56.09
75786;DHT22;64402;44.708;37.644;2023-07-22T06:36:34;28.95;55.29
75786;DHT22;64402;44.708;37.644;2023-07-22T06:39:00;28.94;55.45
75786;DHT22;64402;44.708;37.644;2023-07-22T06:41:26;29.06;54.91
75786;DHT22;64402;44.708;37.644;2023-07-22T06:43:52;29.15;54.56
75786;DHT22;64402;44.708;37.644;2023-07-22T06:46:18;29.27;55.49
75786;DHT22;64402;44.708;37.644;2023-07-22T06:48:44;29.30;55.18
75786;DHT22;64402;44.708;37.644;2023-07-22T06:51:10;29.27;55.89
75786;DHT22;64402;44.708;37.644;2023-07-22T06:53:36;29.26;56.17
75786;DHT22;64402;44.708;37.644;2023-07-22T06:56:02;29.39;57.03
75786;DHT22;64402;44.708;37.644;2023-07-22T06:58:29;29.30;57.77
75786;DHT22;64402;44.708;37.644;2023-07-22T07:00:55;29.24;57.44
75786;DHT22;64402;44.708;37.644;2023-07-22T07:03:22;29.30;56.54
75786;DHT22;64402;44.708;37.644;2023-07-22T07:05:55;29.17;55.23
75786;DHT22;64402;44.708;37.644;2023-07-22T07:08:22;29.32;56.55
75786;DHT22;64402;44.708;37.644;2023-07-22T07:10:49;29.45;54.54
75786;DHT22;64402;44.708;37.644;2023-07-22T07:13:15;29.36;57.09
75786;DHT22;64402;44.708;37.644;2023-07-22T07:15:41;29.22;55.84
75786;DHT22;64402;44.708;37.644;2023-07-22T07:18:07;29.13;57.45
75786;DHT22;64402;44.708;37.644;2023-07-22T07:20:33;29.23;55.04
75786;DHT22;64402;44.708;37.644;2023-07-22T07:22:59;29.27;54.92
75786;DHT22;64402;44.708;37.644;2023-07-22T07:25:26;29.38;55.36
75786;DHT22;64402;44.708;37.644;2023-07-22T07:27:52;29.44;52.98
75786;DHT22;64402;44.708;37.644;2023-07-22T07:30:18;29.35;53.21
75786;DHT22;64402;44.708;37.644;2023-07-22T07:32:44;29.53;52.77
75786;DHT22;64402;44.708;37.644;2023-07-22T07:35:10;29.80;52.69
75786;DHT22;64402;44.708;37.644;2023-07-22T07:37:37;29.87;53.75
75786;DHT22;64402;44.708;37.644;2023-07-22T07:40:04;29.79;52.88
75786;DHT22;64402;44.708;37.644;2023-07-22T07:42:30;29.86;54.10
75786;DHT22;64402;44.708;37.644;2023-07-22T07:44:56;29.79;53.11
75786;DHT22;64402;44.708;37.644;2023-07-22T07:47:22;29.67;54.55
75786;DHT22;64402;44.708;37.644;2023-07-22T07:49:48;29.81;54.11
75786;DHT22;64402;44.708;37.644;2023-07-22T07:52:14;29.61;53.71
75786;DHT22;64402;44.708;37.644;2023-07-22T07:54:40;29.66;55.91
75786;DHT22;64402;44.708;37.644;2023-07-22T07:57:06;29.73;55.26
75786;DHT22;64402;44.708;37.644;2023-07-22T07:59:32;29.80;55.06
75786;DHT22;64402;44.708;37.644;2023-07-22T08:01:59;29.78;54.00
75786;DHT22;64402;44.708;37.644;2023-07-22T08:04:25;29.78;54.85
75786;DHT22;64402;44.708;37.644;2023-07-22T08:06:52;29.79;55.74
75786;DHT22;64402;44.708;37.644;2023-07-22T08:09:18;29.76;52.81
75786;DHT22;64402;44.708;37.644;2023-07-22T08:11:46;29.80;53.51
75786;DHT22;64402;44.708;37.644;2023-07-22T08:14:12;29.88;55.31
75786;DHT22;64402;44.708;37.644;2023-07-22T08:16:40;30.02;54.00
75786;DHT22;64402;44.708;37.644;2023-07-22T08:19:06;29.91;53.10
75786;DHT22;64402;44.708;37.644;2023-07-22T08:21:32;30.09;51.97
75786;DHT22;64402;44.708;37.644;2023-07-22T08:23:59;30.22;51.73
75786;DHT22;64402;44.708;37.644;2023-07-22T08:26:25;30.26;51.78
75786;DHT22;64402;44.708;37.644;2023-07-22T08:28:51;30.18;51.00
75786;DHT22;64402;44.708;37.644;2023-07-22T08:31:17;30.32;50.90
75786;DHT22;64402;44.708;37.644;2023-07-22T08:33:43;30.38;50.65
75786;DHT22;64402;44.708;37.644;2023-07-22T08:36:10;30.39;50.94
75786;DHT22;64402;44.708;37.644;2023-07-22T08:38:36;30.34;50.66
75786;DHT22;64402;44.708;37.644;2023-07-22T08:41:02;30.45;50.84
75786;DHT22;64402;44.708;37.644;2023-07-22T08:43:29;30.44;49.54
75786;DHT22;64402;44.708;37.644;2023-07-22T08:45:55;30.24;50.23
75786;DHT22;64402;44.708;37.644;2023-07-22T08:48:26;30.28;50.79
75786;DHT22;64402;44.708;37.644;2023-07-22T08:51:02;30.52;49.40
75786;DHT22;64402;44.708;37.644;2023-07-22T08:53:30;30.41;50.06
75786;DHT22;64402;44.708;37.644;2023-07-22T08:55:56;30.42;49.27
75786;DHT22;64402;44.708;37.644;2023-07-22T08:58:24;30.65;50.04
75786;DHT22;64402;44.708;37.644;2023-07-22T09:00:50;30.81;50.19
75786;DHT22;64402;44.708;37.644;2023-07-22T09:03:18;30.77;48.25
75786;DHT22;64402;44.708;37.644;2023-07-22T09:05:45;30.92;49.27
75786;DHT22;64402;44.708;37.644;2023-07-22T09:08:12;30.95;49.87
75786;DHT22;64402;44.708;37.644;2023-07-22T09:10:38;31.30;47.89
75786;DHT22;64402;44.708;37.644;2023-07-22T09:13:05;32.82;44.18
75786;DHT22;64402;44.708;37.644;2023-07-22T09:15:35;34.35;42.00
75786;DHT22;64402;44.708;37.644;2023-07-22T09:18:03;34.96;40.30
75786;DHT22;64402;44.708;37.644;2023-07-22T09:20:29;35.56;38.65
75786;DHT22;64402;44.708;37.644;2023-07-22T09:22:56;35.72;36.56
75786;DHT22;64402;44.708;37.644;2023-07-22T09:25:27;36.31;35.84
75786;DHT22;64402;44.708;37.644;2023-07-22T09:27:55;36.82;34.44
75786;DHT22;64402;44.708;37.644;2023-07-22T09:30:28;36.98;33.25
75786;DHT22;64402;44.708;37.644;2023-07-22T09:32:56;37.52;33.68
75786;DHT22;64402;44.708;37.644;2023-07-22T09:35:26;37.87;32.58
75786;DHT22;64402;44.708;37.644;2023-07-22T09:37:53;37.85;31.74
75786;DHT22;64402;44.708;37.644;2023-07-22T09:40:22;38.24;32.34
75786;DHT22;64402;44.708;37.644;2023-07-22T09:42:53;38.43;31.41
75786;DHT22;64402;44.708;37.644;2023-07-22T09:45:23;38.74;30.71
75786;DHT22;64402;44.708;37.644;2023-07-22T09:47:51;38.95;30.54
75786;DHT22;64402;44.708;37.644;2023-07-22T09:50:19;38.80;29.88
75786;DHT22;64402;44.708;37.644;2023-07-22T09:55:16;39.82;27.16
75786;DHT22;64402;44.708;37.644;2023-07-22T09:57:50;40.30;27.16
75786;DHT22;64402;44.708;37.644;2023-07-22T10:00:18;40.56;27.05
75786;DHT22;64402;44.708;37.644;2023-07-22T10:02:48;40.74;26.12
75786;DHT22;64402;44.708;37.644;2023-07-22T10:05:17;40.13;26.98
75786;DHT22;64402;44.708;37.644;2023-07-22T10:07:46;40.02;28.29
75786;DHT22;64402;44.708;37.644;2023-07-22T10:10:14;40.37;26.94
75786;DHT22;64402;44.708;37.644;2023-07-22T10:12:41;40.50;26.10
75786;DHT22;64402;44.708;37.644;2023-07-22T10:15:12;40.55;26.28
75786;DHT22;64402;44.708;37.644;2023-07-22T10:17:42;40.96;25.06
75786;DHT22;64402;44.708;37.644;2023-07-22T10:20:10;41.09;24.81
75786;DHT22;64402;44.708;37.644;2023-07-22T10:22:44;41.45;24.21
75786;DHT22;64402;44.708;37.644;2023-07-22T10:25:20;41.14;25.54
75786;DHT22;64402;44.708;37.644;2023-07-22T10:27:47;40.91;26.36
75786;DHT22;64402;44.708;37.644;2023-07-22T10:30:15;41.52;24.94
75786;DHT22;64402;44.708;37.644;2023-07-22T10:32:51;42.01;23.90
75786;DHT22;64402;44.708;37.644;2023-07-22T10:37:49;42.51;24.60
75786;DHT22;64402;44.708;37.644;2023-07-22T10:43:05;42.97;22.11
75786;DHT22;64402;44.708;37.644;2023-07-22T10:45:39;42.35;24.03
75786;DHT22;64402;44.708;37.644;2023-07-22T10:48:08;41.99;23.96
75786;DHT22;64402;44.708;37.644;2023-07-22T10:50:39;42.60;23.14
75786;DHT22;64402;44.708;37.644;2023-07-22T10:53:09;43.62;20.83
75786;DHT22;64402;44.708;37.644;2023-07-22T10:58:32;43.09;22.55
75786;DHT22;64402;44.708;37.644;2023-07-22T11:06:34;42.47;23.49
75786;DHT22;64402;44.708;37.644;2023-07-22T11:09:01;42.03;24.10
75786;DHT22;64402;44.708;37.644;2023-07-22T11:11:42;43.26;21.78
75786;DHT22;64402;44.708;37.644;2023-07-22T11:14:39;43.86;19.41
75786;DHT22;64402;44.708;37.644;2023-07-22T11:17:06;43.79;20.62
75786;DHT22;64402;44.708;37.644;2023-07-22T11:19:37;43.53;21.52
75786;DHT22;64402;44.708;37.644;2023-07-22T11:22:03;43.91;20.64
75786;DHT22;64402;44.708;37.644;2023-07-22T11:24:32;44.52;19.73
75786;DHT22;64402;44.708;37.644;2023-07-22T11:26:59;45.10;19.17
75786;DHT22;64402;44.708;37.644;2023-07-22T11:29:28;44.73;19.74
75786;DHT22;64402;44.708;37.644;2023-07-22T11:31:55;43.87;19.72
75786;DHT22;64402;44.708;37.644;2023-07-22T11:34:23;44.35;19.09
75786;DHT22;64402;44.708;37.644;2023-07-22T11:36:51;44.46;19.99
75786;DHT22;64402;44.708;37.644;2023-07-22T11:39:25;45.31;18.79
75786;DHT22;64402;44.708;37.644;2023-07-22T11:41:52;44.37;18.55
75786;DHT22;64402;44.708;37.644;2023-07-22T11:44:21;44.35;19.39
75786;DHT22;64402;44.708;37.644;2023-07-22T11:49:26;43.76;19.43
75786;DHT22;64402;44.708;37.644;2023-07-22T11:51:58;42.79;20.66
75786;DHT22;64402;44.708;37.644;2023-07-22T11:54:25;42.73;21.90
75786;DHT22;64402;44.708;37.644;2023-07-22T11:56:52;43.17;21.08
75786;DHT22;64402;44.708;37.644;2023-07-22T11:59:36;42.78;22.24
75786;DHT22;64402;44.708;37.644;2023-07-22T12:02:04;42.97;22.20
75786;DHT22;64402;44.708;37.644;2023-07-22T12:04:33;42.94;22.68
75786;DHT22;64402;44.708;37.644;2023-07-22T12:07:02;42.65;23.20
75786;DHT22;64402;44.708;37.644;2023-07-22T12:09:29;43.12;21.92
75786;DHT22;64402;44.708;37.644;2023-07-22T12:11:57;43.46;20.99
75786;DHT22;64402;44.708;37.644;2023-07-22T12:14:32;43.10;21.28
75786;DHT22;64402;44.708;37.644;2023-07-22T12:16:59;43.24;21.40
75786;DHT22;64402;44.708;37.644;2023-07-22T12:19:27;43.24;21.66
75786;DHT22;64402;44.708;37.644;2023-07-22T12:21:55;42.83;22.18
75786;DHT22;64402;44.708;37.644;2023-07-22T12:24:21;43.06;21.40
75786;DHT22;64402;44.708;37.644;2023-07-22T12:26:47;42.06;23.46
75786;DHT22;64402;44.708;37.644;2023-07-22T12:29:13;42.28;23.46
75786;DHT22;64402;44.708;37.644;2023-07-22T12:31:39;42.24;23.43
75786;DHT22;64402;44.708;37.644;2023-07-22T12:34:05;42.54;24.14
75786;DHT22;64402;44.708;37.644;2023-07-22T12:36:31;42.70;23.56
75786;DHT22;64402;44.708;37.644;2023-07-22T12:38:57;43.05;23.39
75786;DHT22;64402;44.708;37.644;2023-07-22T12:41:23;42.98;23.08
75786;DHT22;64402;44.708;37.644;2023-07-22T12:43:50;42.77;23.00
75786;DHT22;64402;44.708;37.644;2023-07-22T12:46:16;42.41;23.01
75786;DHT22;64402;44.708;37.644;2023-07-22T12:48:42;42.98;22.87
75786;DHT22;64402;44.708;37.644;2023-07-22T12:51:08;43.65;21.15
75786;DHT22;64402;44.708;37.644;2023-07-22T12:53:35;43.97;21.17
75786;DHT22;64402;44.708;37.644;2023-07-22T12:56:01;44.00;20.67
75786;DHT22;64402;44.708;37.644;2023-07-22T12:58:31;43.68;20.19
75786;DHT22;64402;44.708;37.644;2023-07-22T13:00:57;42.91;20.86
75786;DHT22;64402;44.708;37.644;2023-07-22T13:03:24;42.79;20.68
75786;DHT22;64402;44.708;37.644;2023-07-22T13:05:50;42.80;21.01
75786;DHT22;64402;44.708;37.644;2023-07-22T13:08:16;43.11;20.53
75786;DHT22;64402;44.708;37.644;2023-07-22T13:10:42;43.08;21.45
75786;DHT22;64402;44.708;37.644;2023-07-22T13:13:10;43.09;21.68
75786;DHT22;64402;44.708;37.644;2023-07-22T13:15:36;43.10;21.13
75786;DHT22;64402;44.708;37.644;2023-07-22T13:18:02;42.99;21.76
75786;DHT22;64402;44.708;37.644;2023-07-22T13:20:29;42.89;20.04
75786;DHT22;64402;44.708;37.644;2023-07-22T13:22:56;42.85;21.22
75786;DHT22;64402;44.708;37.644;2023-07-22T13:25:23;42.72;21.85
75786;DHT22;64402;44.708;37.644;2023-07-22T13:27:49;42.85;22.57
75786;DHT22;64402;44.708;37.644;2023-07-22T13:30:15;43.24;20.84
75786;DHT22;64402;44.708;37.644;2023-07-22T13:32:42;43.67;20.37
75786;DHT22;64402;44.708;37.644;2023-07-22T13:35:08;42.87;21.74
75786;DHT22;64402;44.708;37.644;2023-07-22T13:37:35;42.82;21.53
75786;DHT22;64402;44.708;37.644;2023-07-22T13:40:01;43.50;21.03
75786;DHT22;64402;44.708;37.644;2023-07-22T13:42:34;43.31;20.35
75786;DHT22;64402;44.708;37.644;2023-07-22T13:45:00;42.30;22.11
75786;DHT22;64402;44.708;37.644;2023-07-22T13:47:26;43.02;21.27
75786;DHT22;64402;44.708;37.644;2023-07-22T13:49:52;42.95;21.39
75786;DHT22;64402;44.708;37.644;2023-07-22T13:52:18;43.50;19.78
75786;DHT22;64402;44.708;37.644;2023-07-22T13:54:44;42.93;20.63
75786;DHT22;64402;44.708;37.644;2023-07-22T13:57:12;43.05;23.21
75786;DHT22;64402;44.708;37.644;2023-07-22T13:59:38;43.17;21.82
75786;DHT22;64402;44.708;37.644;2023-07-22T14:02:05;43.03;20.57
75786;DHT22;64402;44.708;37.644;2023-07-22T14:04:31;41.87;22.28
75786;DHT22;64402;44.708;37.644;2023-07-22T14:06:57;41.11;25.95
75786;DHT22;64402;44.708;37.644;2023-07-22T14:09:23;41.49;23.88
75786;DHT22;64402;44.708;37.644;2023-07-22T14:11:49;42.53;22.30
75786;DHT22;64402;44.708;37.644;2023-07-22T14:14:15;42.47;22.05
75786;DHT22;64402;44.708;37.644;2023-07-22T14:16:42;41.99;22.36
75786;DHT22;64402;44.708;37.644;2023-07-22T14:19:08;41.88;21.96
75786;DHT22;64402;44.708;37.644;2023-07-22T14:21:34;42.54;21.85
75786;DHT22;64402;44.708;37.644;2023-07-22T14:24:00;42.82;22.07
75786;DHT22;64402;44.708;37.644;2023-07-22T14:26:26;42.03;22.72
75786;DHT22;64402;44.708;37.644;2023-07-22T14:28:52;42.29;23.95
75786;DHT22;64402;44.708;37.644;2023-07-22T14:31:18;42.07;23.33
75786;DHT22;64402;44.708;37.644;2023-07-22T14:33:44;42.07;23.59
75786;DHT22;64402;44.708;37.644;2023-07-22T14:36:10;42.58;23.24
75786;DHT22;64402;44.708;37.644;2023-07-22T14:38:37;42.33;24.01
75786;DHT22;64402;44.708;37.644;2023-07-22T14:41:03;42.54;23.44
75786;DHT22;64402;44.708;37.644;2023-07-22T14:43:29;41.98;23.89
75786;DHT22;64402;44.708;37.644;2023-07-22T14:45:55;41.76;23.03
75786;DHT22;64402;44.708;37.644;2023-07-22T14:48:22;41.27;22.63
75786;DHT22;64402;44.708;37.644;2023-07-22T14:50:48;40.93;23.88
75786;DHT22;64402;44.708;37.644;2023-07-22T14:53:14;41.33;24.94
75786;DHT22;64402;44.708;37.644;2023-07-22T14:55:40;41.30;25.10
75786;DHT22;64402;44.708;37.644;2023-07-22T14:58:06;41.65;23.27
75786;DHT22;64402;44.708;37.644;2023-07-22T15:00:32;41.14;25.42
75786;DHT22;64402;44.708;37.644;2023-07-22T15:02:58;40.59;26.52
75786;DHT22;64402;44.708;37.644;2023-07-22T15:05:25;40.55;24.49
75786;DHT22;64402;44.708;37.644;2023-07-22T15:07:51;40.45;24.09
75786;DHT22;64402;44.708;37.644;2023-07-22T15:10:17;40.07;24.61
75786;DHT22;64402;44.708;37.644;2023-07-22T15:12:43;40.23;24.59
75786;DHT22;64402;44.708;37.644;2023-07-22T15:15:11;40.26;25.14
75786;DHT22;64402;44.708;37.644;2023-07-22T15:17:37;40.39;25.30
75786;DHT22;64402;44.708;37.644;2023-07-22T15:20:04;39.70;27.29
75786;DHT22;64402;44.708;37.644;2023-07-22T15:22:31;39.91;26.98
75786;DHT22;64402;44.708;37.644;2023-07-22T15:24:57;39.13;28.44
75786;DHT22;64402;44.708;37.644;2023-07-22T15:27:23;38.73;29.11
75786;DHT22;64402;44.708;37.644;2023-07-22T15:29:49;38.24;30.11
75786;DHT22;64402;44.708;37.644;2023-07-22T15:32:15;38.02;30.40
75786;DHT22;64402;44.708;37.644;2023-07-22T15:34:41;37.77;30.80